Niagara Falls International Airport
KIAG : now visible

Airfield :











YOU CAN JOIN US ON...

 
LOGIN :

Register | Disclaimer

   EN    FR    IT 

 









Legend :    VFR   Marginal VFR   IFR   Intensive IFR   Very Intensive IFR
Visi :
Ceiling :
>= 8 km
>= 3000ft
5 to 8 km
1000 to 3000 ft
1500m to 5 km
500 to 1000 ft
800 to 1500m
200 to 500 ft
< 800m
< 200 ft
Symbols :   Thunderstorms  Fog  Heavy snow  Heavy precipitations  Wind > 20 kt







- Airport Elevation : 589 ft
- IATA code : IAG


KIAG - Niagara Falls International

CURRENT METAR :
  • 160553Z AUTO 08003KT 10SM SCT022 OVC044 15/14 A3009 RMK AO2 SLP189 T01500144 10150 20144 58004 $

EXPIRED METARs :
  • 160538Z AUTO 09003KT 10SM SCT022 OVC044 15/14 A3008 RMK AO2 T01500144 $
  • 160453Z AUTO 07004KT 10SM BKN023 OVC042 15/14 A3009 RMK AO2 SLP191 T01500144 402060133 $
  • 160415Z AUTO 10003KT 10SM SCT005 OVC046 15/14 A3010 RMK AO2 T01500144 $
  • 160353Z AUTO 09003KT 6SM BR OVC005 15/14 A3010 RMK AO2 SLP192 T01500144 $
  • 160332Z AUTO 14003KT 10SM OVC005 15/14 A3010 RMK AO2 T01500139 $
  • 160318Z AUTO 00000KT 8SM BKN004 OVC060 15/14 A3010 RMK AO2 T01500144 $
  • 160309Z AUTO 10004KT 10SM SCT004 OVC060 15/14 A3010 RMK AO2 T01500144 $

TAF KIAG
Valid from the 16 at 06:00 until the 17 at 06:00 UTC


160538Z 1606/1706 VRB03KT P6SM VCSH BKN025 OVC040
FM160900 07004KT P6SM VCSH OVC020
TEMPO 1610/1614 BKN012
FM161400 07007KT P6SM BKN025
FM161900 04009KT P6SM SCT035
FM170000 09005KT P6SM FEW250
No reported NOTAMs for that airfield.



MET'MAP, your aeronautical weather chart ! - Copyright ORBIFLY December 2007 - Disclaimer

ORBIFLY MET'MAP TEAM :

Programming & Development : Alexandra Zaïnal
Concept & Development : Baudouin d'Aumeries
Co-Development & Prog : Marc-Olivier Méhu
Technical & hardware support : Manuel Goepfert

Contact : metmap@orbifly.com




SOURCES & CREDITS :

   NOAA       Earth
Advisory